Time;durP1;ratioP1;P1;durP2;ratioP2;P2;SDS_P1;SDS_P2;PMS_P1;PMS_P2;Temp;Humidity;BMP_temperature;BMP_pressure;BME280_temperature;BME280_humidity;BME280_pressure;Samples;Min_cycle;Max_cycle;Signal;HPM_P1;HPM_P2
2022/09/25 00:01:36;;;;;;;32.53;23.20;;;13.70;99.90;;;;;;5032306;28;20402;-75
2022/09/25 00:04:01;;;;;;;34.17;24.00;;;13.60;99.90;;;;;;5031797;28;20664;-74
2022/09/25 00:06:28;;;;;;;32.87;21.90;;;13.70;99.90;;;;;;5031217;28;20423;-75
2022/09/25 00:08:55;;;;;;;33.87;21.87;;;13.70;99.90;;;;;;5032308;28;20190;-74
2022/09/25 00:11:28;;;;;;;29.80;22.17;;;13.70;99.90;;;;;;5035190;28;20391;-73
2022/09/25 00:13:55;;;;;;;28.20;21.27;;;13.70;99.90;;;;;;5035256;28;20428;-75
2022/09/25 00:16:24;;;;;;;29.60;21.87;;;13.60;99.90;;;;;;5035876;28;20422;-73
2022/09/25 00:21:35;;;;;;;31.87;22.80;;;13.60;99.90;;;;;;5035858;28;20476;-72
2022/09/25 00:24:03;;;;;;;30.87;23.47;;;13.50;99.90;;;;;;5035230;28;20548;-75
2022/09/25 00:26:32;;;;;;;30.27;20.97;;;13.40;99.90;;;;;;5035747;28;20509;-71
2022/09/25 00:29:00;;;;;;;28.67;21.70;;;13.40;99.90;;;;;;5035617;28;20787;-75
2022/09/25 00:31:26;;;;;;;30.63;22.37;;;13.50;99.90;;;;;;5035380;28;20421;-75
2022/09/25 00:33:55;;;;;;;30.57;22.37;;;13.50;99.90;;;;;;5035050;28;20403;-75
2022/09/25 00:36:20;;;;;;;27.83;19.50;;;13.50;99.90;;;;;;5034487;28;20441;-75
2022/09/25 00:38:47;;;;;;;28.97;19.70;;;13.50;99.90;;;;;;5035524;28;20810;-72
2022/09/25 00:41:15;;;;;;;28.93;20.50;;;13.50;99.90;;;;;;5035477;28;20270;-72
2022/09/25 00:43:49;;;;;;;26.13;19.97;;;13.40;99.90;;;;;;5033428;28;20428;-70
2022/09/25 00:46:36;;;;;;;41.10;21.40;;;13.30;99.90;;;;;;5035425;28;20444;-73
2022/09/25 00:49:18;;;;;;;28.97;20.67;;;13.30;99.90;;;;;;5035219;28;20437;-75
2022/09/25 00:51:52;;;;;;;27.20;19.27;;;13.30;99.90;;;;;;5034846;28;20405;-75
2022/09/25 00:54:28;;;;;;;27.13;20.20;;;13.40;99.90;;;;;;5034557;28;20887;-72
2022/09/25 00:56:57;;;;;;;26.87;18.60;;;13.40;99.90;;;;;;5035123;28;20481;-72
2022/09/25 00:59:32;;;;;;;27.87;19.50;;;13.40;99.90;;;;;;5035106;28;20394;-74
2022/09/25 01:01:58;;;;;;;29.47;19.20;;;13.30;99.90;;;;;;5035172;28;20491;-76
2022/09/25 01:04:26;;;;;;;28.73;19.50;;;13.30;99.90;;;;;;5034324;28;20766;-76
2022/09/25 01:06:51;;;;;;;24.93;19.80;;;13.30;99.90;;;;;;5034684;28;20426;-75
2022/09/25 01:09:17;;;;;;;29.70;20.67;;;13.30;99.90;;;;;;5034854;28;20381;-72
2022/09/25 01:11:44;;;;;;;28.90;21.20;;;13.30;99.90;;;;;;5034931;28;20225;-72
2022/09/25 01:14:13;;;;;;;30.63;21.07;;;13.30;99.90;;;;;;5034264;28;20489;-71
2022/09/25 01:17:06;;;;;;;29.43;20.57;;;13.30;99.90;;;;;;5034871;28;20519;-76
2022/09/25 01:19:53;;;;;;;29.17;20.40;;;13.30;99.90;;;;;;5034745;28;20396;-75
2022/09/25 01:22:54;;;;;;;32.00;18.23;;;13.40;99.90;;;;;;5034707;28;20399;-71
2022/09/25 01:25:57;;;;;;;26.57;19.73;;;13.40;99.90;;;;;;5033699;28;20429;-75
2022/09/25 01:28:41;;;;;;;26.67;18.80;;;13.40;99.90;;;;;;5034618;28;20429;-71
2022/09/25 01:31:24;;;;;;;29.90;19.40;;;13.40;99.90;;;;;;5033568;28;20414;-75
2022/09/25 01:33:57;;;;;;;29.43;20.60;;;13.40;99.90;;;;;;5032952;28;20418;-71
2022/09/25 01:36:36;;;;;;;32.10;22.20;;;13.40;99.90;;;;;;5034341;28;20438;-71
2022/09/25 01:39:36;;;;;;;25.00;19.17;;;13.40;99.90;;;;;;5034433;28;20434;-72
2022/09/25 01:42:10;;;;;;;26.60;19.33;;;13.40;1.00;;;;;;5028844;28;20426;-75
2022/09/25 01:45:10;;;;;;;27.67;19.30;;;13.40;99.90;;;;;;5033460;28;20384;-72
2022/09/25 01:47:37;;;;;;;24.83;17.87;;;13.40;1.00;;;;;;5033098;28;20451;-71
2022/09/25 01:50:20;;;;;;;26.70;17.27;;;13.30;99.90;;;;;;5034356;28;20406;-73
2022/09/25 01:52:52;;;;;;;21.50;17.40;;;13.20;99.90;;;;;;5032966;28;20416;-72
2022/09/25 01:55:29;;;;;;;22.20;16.10;;;13.10;99.90;;;;;;5033297;28;20430;-71
2022/09/25 01:58:09;;;;;;;23.83;19.03;;;13.10;1.00;;;;;;5050114;28;20770;-72
2022/09/25 02:00:40;;;;;;;26.13;18.20;;;13.10;1.00;;;;;;5053976;28;20404;-74
2022/09/25 02:03:17;;;;;;;25.90;20.13;;;13.10;1.00;;;;;;5033961;28;20819;-76
2022/09/25 02:05:48;;;;;;;27.67;21.37;;;13.20;1.00;;;;;;5038840;28;20471;-76
2022/09/25 02:08:29;;;;;;;33.33;21.03;;;13.20;1.00;;;;;;5053786;28;20372;-71
2022/09/25 02:10:59;;;;;;;26.33;19.70;;;13.30;1.00;;;;;;5046245;28;20509;-76
2022/09/25 02:13:36;;;;;;;19.93;15.93;;;13.30;1.00;;;;;;5036062;28;20504;-75
2022/09/25 02:16:07;;;;;;;26.07;17.57;;;13.30;1.00;;;;;;5052995;28;20460;-76
2022/09/25 02:21:35;;;;;;;25.70;19.40;;;13.20;1.00;;;;;;5033805;28;20402;-76
2022/09/25 02:24:12;;;;;;;27.70;19.73;;;13.20;1.00;;;;;;5043676;28;20467;-75
2022/09/25 02:26:38;;;;;;;22.90;17.13;;;13.20;1.00;;;;;;5053463;28;20417;-75
2022/09/25 02:29:05;;;;;;;21.27;16.30;;;13.20;1.00;;;;;;5040750;28;20410;-71
2022/09/25 02:31:46;;;;;;;22.07;17.40;;;13.20;1.00;;;;;;5033480;28;20167;-72
2022/09/25 02:34:12;;;;;;;24.77;17.60;;;13.20;1.00;;;;;;5043467;28;20759;-72
2022/09/25 02:36:37;;;;;;;28.73;19.23;;;13.20;1.00;;;;;;5052270;28;20436;-76
2022/09/25 02:39:05;;;;;;;25.67;18.20;;;13.20;1.00;;;;;;5043117;28;20179;-71
2022/09/25 02:41:47;;;;;;;24.30;17.70;;;13.30;1.00;;;;;;5032086;28;20278;-72
2022/09/25 02:44:21;;;;;;;20.70;15.70;;;13.30;1.00;;;;;;5038342;28;20607;-72
2022/09/25 02:47:02;;;;;;;19.23;15.40;;;13.20;1.00;;;;;;5037769;28;20794;-74
2022/09/25 02:49:40;;;;;;;24.20;17.37;;;13.20;1.00;;;;;;5033192;28;20402;-76
2022/09/25 02:52:33;;;;;;;25.50;18.30;;;13.20;1.00;;;;;;5045024;28;20425;-73
2022/09/25 02:55:04;;;;;;;20.97;16.33;;;13.20;1.00;;;;;;5052129;28;20459;-76
2022/09/25 02:57:41;;;;;;;22.83;18.23;;;13.20;1.00;;;;;;5037631;28;20414;-76
2022/09/25 03:00:08;;;;;;;26.03;18.80;;;13.20;1.00;;;;;;5032991;28;20772;-72
2022/09/25 03:02:36;;;;;;;25.47;16.63;;;13.20;1.00;;;;;;5047443;28;20460;-71
2022/09/25 03:05:04;;;;;;;25.80;17.80;;;13.20;1.00;;;;;;5050906;28;20456;-71
2022/09/25 03:08:36;;;;;;;21.40;17.10;;;13.20;1.00;;;;;;5038060;28;20418;-72
2022/09/25 03:10:17;;;;;;;19.40;15.70;;;13.30;1.00;;;;;;5032677;28;20391;-73
2022/09/25 03:12:43;;;;;;;27.70;17.67;;;13.30;1.00;;;;;;5047409;28;20447;-73
2022/09/25 03:15:10;;;;;;;20.67;16.50;;;13.30;1.00;;;;;;5050696;28;20515;-76
2022/09/25 03:17:38;;;;;;;28.27;19.00;;;13.30;1.00;;;;;;5038331;28;20176;-72
2022/09/25 03:20:05;;;;;;;30.00;17.77;;;13.20;1.00;;;;;;5032857;28;20489;-74
2022/09/25 03:22:31;;;;;;;25.80;17.73;;;13.20;1.00;;;;;;5042997;28;20485;-72
2022/09/25 03:24:57;;;;;;;25.10;18.60;;;13.20;1.00;;;;;;5051811;28;20491;-72
2022/09/25 03:27:27;;;;;;;21.10;15.33;;;13.30;1.00;;;;;;5041681;28;20176;-73
2022/09/25 03:29:54;;;;;;;23.97;18.13;;;13.30;1.00;;;;;;5033000;28;20233;-75
2022/09/25 03:32:20;;;;;;;24.13;17.87;;;13.30;1.00;;;;;;5040897;28;20417;-71
2022/09/25 03:34:46;;;;;;;23.27;16.30;;;13.30;1.00;;;;;;5051663;28;20845;-75
2022/09/25 03:37:11;;;;;;;26.33;16.17;;;13.30;1.00;;;;;;5045547;28;20493;-76
2022/09/25 03:39:37;;;;;;;21.10;15.80;;;13.30;1.00;;;;;;5032743;28;20255;-76
2022/09/25 03:42:03;;;;;;;22.07;15.30;;;13.30;1.00;;;;;;5036260;28;20182;-76
2022/09/25 03:44:29;;;;;;;21.87;17.40;;;13.30;1.00;;;;;;5051624;28;20241;-72
2022/09/25 03:46:55;;;;;;;21.50;15.13;;;13.30;1.00;;;;;;5052829;28;20414;-76
2022/09/25 03:49:21;;;;;;;24.87;16.93;;;13.30;1.00;;;;;;5036314;28;20188;-72
2022/09/25 03:51:47;;;;;;;23.03;16.00;;;13.30;1.00;;;;;;5037657;28;20243;-76
2022/09/25 03:54:13;;;;;;;22.50;15.47;;;13.30;1.00;;;;;;5055410;28;20496;-76
2022/09/25 03:56:38;;;;;;;23.00;17.00;;;13.30;1.00;;;;;;5052127;28;20200;-75
2022/09/25 03:59:04;;;;;;;20.27;15.87;;;13.30;1.00;;;;;;5036691;28;20175;-72
2022/09/25 04:01:30;;;;;;;23.10;17.50;;;13.30;1.00;;;;;;5036420;28;20178;-72
2022/09/25 04:03:55;;;;;;;19.10;15.27;;;13.30;1.00;;;;;;5035245;28;20773;-76
2022/09/25 04:06:24;;;;;;;21.97;16.20;;;13.30;1.00;;;;;;5035954;28;20188;-74
2022/09/25 04:08:52;;;;;;;21.93;16.63;;;13.30;1.00;;;;;;5035683;28;20167;-76
2022/09/25 04:11:19;;;;;;;20.67;16.70;;;13.30;1.00;;;;;;5038684;28;20501;-76
2022/09/25 04:13:45;;;;;;;20.20;14.40;;;13.30;1.00;;;;;;5035551;28;20972;-77
2022/09/25 04:16:12;;;;;;;21.10;16.53;;;13.30;1.00;;;;;;5036050;28;20950;-70
2022/09/25 04:18:41;;;;;;;23.37;17.17;;;13.30;1.00;;;;;;5043392;28;20432;-74
2022/09/25 04:21:08;;;;;;;17.93;14.70;;;13.30;1.00;;;;;;5035952;28;20433;-72
2022/09/25 04:23:36;;;;;;;21.50;15.57;;;13.30;1.00;;;;;;5043229;28;20777;-72
2022/09/25 04:26:02;;;;;;;19.57;14.90;;;13.30;1.00;;;;;;5055288;28;20425;-76
2022/09/25 04:28:30;;;;;;;21.57;15.90;;;13.30;1.00;;;;;;5048682;28;20459;-72
2022/09/25 04:30:55;;;;;;;21.43;15.97;;;13.30;1.00;;;;;;5035581;28;20887;-72
2022/09/25 04:36:18;;;;;;;19.90;14.53;;;13.30;1.00;;;;;;5054214;28;20237;-76
2022/09/25 04:38:45;;;;;;;17.73;13.60;;;13.30;1.00;;;;;;5047347;28;20511;-76
2022/09/25 04:41:10;;;;;;;22.00;15.83;;;13.40;1.00;;;;;;5035345;28;20739;-72
2022/09/25 04:43:37;;;;;;;18.83;14.70;;;13.40;1.00;;;;;;5040984;28;20514;-75
2022/09/25 04:46:07;;;;;;;19.30;14.97;;;13.30;1.00;;;;;;5055052;28;20190;-73
2022/09/25 04:48:33;;;;;;;16.43;14.33;;;13.40;1.00;;;;;;5050004;28;20419;-76
2022/09/25 04:50:59;;;;;;;16.53;13.07;;;13.40;1.00;;;;;;5035267;28;20390;-76
2022/09/25 04:53:26;;;;;;;17.73;14.40;;;13.40;1.00;;;;;;5038542;28;20747;-76
2022/09/25 04:55:54;;;;;;;19.93;15.20;;;13.40;1.00;;;;;;5054305;28;20504;-71
2022/09/25 04:58:20;;;;;;;20.30;14.17;;;13.40;1.00;;;;;;5052585;28;20422;-73
2022/09/25 05:00:46;;;;;;;17.40;13.93;;;13.40;1.00;;;;;;5034882;28;20391;-70
2022/09/25 05:03:11;;;;;;;18.80;12.60;;;13.40;1.00;;;;;;5035297;28;20468;-74
2022/09/25 05:05:37;;;;;;;16.83;13.63;;;13.40;1.00;;;;;;5054037;28;20671;-74
2022/09/25 05:08:03;;;;;;;18.47;14.30;;;13.40;1.00;;;;;;5053325;28;20173;-72
2022/09/25 05:10:38;;;;;;;17.07;13.30;;;13.40;1.00;;;;;;5053686;28;20267;-75
2022/09/25 05:13:04;;;;;;;16.10;12.73;;;13.40;1.00;;;;;;5052174;28;20758;-75
2022/09/25 05:15:32;;;;;;;16.90;12.77;;;13.40;1.00;;;;;;5032858;28;20409;-70
2022/09/25 05:18:16;;;;;;;15.80;12.23;;;13.40;1.00;;;;;;5035276;28;20407;-69
2022/09/25 05:20:42;;;;;;;17.30;11.60;;;13.40;1.00;;;;;;5054768;28;20412;-75
2022/09/25 05:23:08;;;;;;;13.73;11.00;;;13.30;1.00;;;;;;5048788;28;20450;-70
2022/09/25 05:25:34;;;;;;;16.70;12.17;;;13.30;1.00;;;;;;5033559;28;20544;-75
2022/09/25 05:28:00;;;;;;;18.10;11.17;;;13.30;1.00;;;;;;5038298;28;20508;-75
2022/09/25 05:30:29;;;;;;;14.47;12.80;;;13.30;1.00;;;;;;5054584;28;20531;-76
2022/09/25 05:32:57;;;;;;;17.33;11.50;;;13.30;1.00;;;;;;5051807;28;20428;-75
2022/09/25 05:35:25;;;;;;;12.53;11.23;;;13.20;1.00;;;;;;5033080;28;20464;-75
2022/09/25 05:37:50;;;;;;;15.70;11.50;;;13.20;1.00;;;;;;5035434;28;20406;-76
2022/09/25 05:40:19;;;;;;;15.47;11.83;;;13.30;1.00;;;;;;5054291;28;20928;-76
2022/09/25 05:42:46;;;;;;;15.37;11.63;;;13.30;1.00;;;;;;5053975;28;20448;-75
2022/09/25 05:45:13;;;;;;;16.20;13.10;;;13.30;1.00;;;;;;5033497;28;20922;-70
2022/09/25 05:47:40;;;;;;;13.50;10.03;;;13.30;1.00;;;;;;5032921;28;20396;-71
2022/09/25 05:50:08;;;;;;;13.03;10.50;;;13.30;1.00;;;;;;5052827;28;20417;-71
2022/09/25 05:52:34;;;;;;;11.60;9.60;;;13.40;1.00;;;;;;5053805;28;20384;-69
2022/09/25 05:55:01;;;;;;;12.93;9.10;;;13.40;1.00;;;;;;5035366;28;20434;-75
2022/09/25 05:57:30;;;;;;;14.60;10.40;;;13.40;1.00;;;;;;5032758;28;20906;-69
2022/09/25 05:59:55;;;;;;;9.33;8.43;;;13.40;1.00;;;;;;5049221;28;20437;-69
2022/09/25 06:02:21;;;;;;;9.17;8.27;;;13.40;1.00;;;;;;5042007;28;20441;-75
2022/09/25 06:04:47;;;;;;;12.83;8.70;;;13.40;1.00;;;;;;5033027;28;20576;-69
2022/09/25 06:07:13;;;;;;;12.30;8.30;;;13.40;1.00;;;;;;5042834;28;20171;-75
2022/09/25 06:09:38;;;;;;;9.43;8.50;;;13.40;1.00;;;;;;5053738;28;20443;-70
2022/09/25 06:12:05;;;;;;;10.27;8.40;;;13.40;1.00;;;;;;5044063;28;20176;-70
2022/09/25 06:14:31;;;;;;;14.13;9.00;;;13.40;1.00;;;;;;5032958;28;20199;-75
2022/09/25 06:16:58;;;;;;;8.93;8.10;;;13.50;1.00;;;;;;5034502;28;20461;-69
2022/09/25 06:19:23;;;;;;;10.80;9.10;;;13.50;1.00;;;;;;5033691;28;20455;-73
2022/09/25 06:21:49;;;;;;;10.40;9.30;;;13.50;1.00;;;;;;5034472;28;20438;-68
2022/09/25 06:24:15;;;;;;;13.47;9.50;;;13.50;1.00;;;;;;5032683;28;20203;-75
2022/09/25 06:26:40;;;;;;;10.80;8.87;;;13.60;1.00;;;;;;5038785;28;20281;-76
2022/09/25 06:29:06;;;;;;;10.03;8.93;;;13.60;1.00;;;;;;5053065;28;20171;-76
2022/09/25 06:31:33;;;;;;;11.97;9.23;;;13.70;1.00;;;;;;5048065;28;20175;-69
2022/09/25 06:33:59;;;;;;;11.70;10.10;;;13.80;1.00;;;;;;5031347;28;20423;-76
2022/09/25 06:36:25;;;;;;;11.97;9.97;;;13.80;1.00;;;;;;5036379;28;20438;-69
2022/09/25 06:38:54;;;;;;;11.87;9.20;;;13.90;1.00;;;;;;5033385;28;20525;-69
2022/09/25 06:41:21;;;;;;;17.77;10.23;;;13.90;1.00;;;;;;5035949;28;20179;-69
2022/09/25 06:43:53;;;;;;;15.70;11.13;;;13.90;1.00;;;;;;5042099;28;20459;-75
2022/09/25 06:46:19;;;;;;;15.43;10.67;;;14.00;1.00;;;;;;5052849;28;20790;-69
2022/09/25 06:48:53;;;;;;;14.07;11.70;;;14.00;1.00;;;;;;5052050;28;20544;-74
2022/09/25 06:51:23;;;;;;;17.43;10.70;;;14.00;1.00;;;;;;5053273;28;20475;-69
2022/09/25 06:53:52;;;;;;;12.63;10.30;;;14.10;1.00;;;;;;5047928;28;20426;-75
2022/09/25 06:56:18;;;;;;;13.83;10.30;;;14.10;1.00;;;;;;5033049;28;20426;-76
2022/09/25 06:58:44;;;;;;;13.50;10.83;;;14.10;1.00;;;;;;5035685;28;20432;-71
2022/09/25 07:01:10;;;;;;;12.03;10.50;;;14.10;1.00;;;;;;5052073;28;20508;-76
2022/09/25 07:03:46;;;;;;;12.40;10.60;;;14.10;1.00;;;;;;5050991;28;20224;-75
2022/09/25 07:06:20;;;;;;;11.53;10.33;;;14.10;1.00;;;;;;5032581;28;20428;-76
2022/09/25 07:08:47;;;;;;;14.40;10.60;;;14.10;1.00;;;;;;5034746;28;20600;-69
2022/09/25 07:11:19;;;;;;;16.23;10.10;;;14.10;1.00;;;;;;5053013;28;20413;-76
2022/09/25 07:13:45;;;;;;;13.10;11.47;;;14.10;1.00;;;;;;5050472;28;20397;-68
2022/09/25 07:16:13;;;;;;;12.00;10.10;;;14.10;1.00;;;;;;5032746;28;20389;-75
2022/09/25 07:18:39;;;;;;;13.73;11.50;;;14.10;1.00;;;;;;5032025;28;20463;-74
2022/09/25 07:21:11;;;;;;;13.80;11.00;;;14.10;1.00;;;;;;5056705;28;20428;-78
2022/09/25 07:23:37;;;;;;;13.53;10.37;;;14.10;1.00;;;;;;5054922;28;20614;-73
2022/09/25 07:26:12;;;;;;;12.73;9.57;;;14.20;1.00;;;;;;5037090;28;20985;-75
2022/09/25 07:28:39;;;;;;;12.90;10.53;;;14.30;1.00;;;;;;5036902;28;20448;-76
2022/09/25 07:31:13;;;;;;;16.37;11.07;;;14.40;1.00;;;;;;5055524;28;20918;-69
2022/09/25 07:33:39;;;;;;;13.80;10.50;;;14.40;1.00;;;;;;5053269;28;20417;-74
2022/09/25 07:36:05;;;;;;;14.17;11.27;;;14.50;1.00;;;;;;5036642;28;20446;-78
2022/09/25 07:38:31;;;;;;;13.37;10.57;;;14.50;1.00;;;;;;5036701;28;20410;-77
2022/09/25 07:40:57;;;;;;;12.53;10.30;;;14.50;1.00;;;;;;5056485;28;20420;-70
2022/09/25 07:43:22;;;;;;;12.53;9.10;;;14.40;1.00;;;;;;5055896;28;20675;-77
2022/09/25 07:45:52;;;;;;;11.67;9.23;;;14.40;1.00;;;;;;5036787;28;20934;-78
2022/09/25 07:48:20;;;;;;;8.87;7.90;;;14.30;1.00;;;;;;5036132;28;20254;-70
2022/09/25 07:50:48;;;;;;;10.00;7.60;;;14.30;1.00;;;;;;5038200;28;20426;-68
2022/09/25 07:53:13;;;;;;;19.33;8.97;;;14.20;1.00;;;;;;5036664;28;20789;-78
2022/09/25 07:55:40;;;;;;;9.33;7.20;;;14.20;1.00;;;;;;5034698;28;20456;-76
2022/09/25 07:58:05;;;;;;;12.07;8.07;;;14.20;1.00;;;;;;5036330;28;20520;-77
2022/09/25 08:00:31;;;;;;;11.17;8.30;;;14.10;1.00;;;;;;5053015;28;20428;-76
2022/09/25 08:02:58;;;;;;;8.60;6.90;;;14.00;1.00;;;;;;5056049;28;20238;-68
2022/09/25 08:05:25;;;;;;;15.80;8.77;;;14.00;1.00;;;;;;5038121;28;20453;-77
2022/09/25 08:07:52;;;;;;;8.37;7.60;;;14.00;1.00;;;;;;5036239;28;20417;-77
2022/09/25 08:10:18;;;;;;;11.37;8.30;;;13.90;1.00;;;;;;5051364;28;20424;-76
2022/09/25 08:12:44;;;;;;;12.57;8.17;;;13.90;1.00;;;;;;5054736;28;20413;-67
2022/09/25 08:15:09;;;;;;;10.90;8.43;;;13.90;1.00;;;;;;5039015;28;20456;-76
2022/09/25 08:17:35;;;;;;;10.13;9.13;;;14.00;1.00;;;;;;5036063;28;20263;-77
2022/09/25 08:20:01;;;;;;;9.07;8.03;;;13.90;1.00;;;;;;5047926;28;20206;-68
2022/09/25 08:22:27;;;;;;;12.00;8.03;;;13.90;1.00;;;;;;5055715;28;20254;-77
2022/09/25 08:24:53;;;;;;;8.80;7.90;;;13.90;1.00;;;;;;5044080;28;20887;-77
2022/09/25 08:27:19;;;;;;;13.43;9.00;;;13.90;1.00;;;;;;5035893;28;20169;-78
2022/09/25 08:29:45;;;;;;;11.20;8.70;;;13.90;1.00;;;;;;5044253;28;20928;-77
2022/09/25 08:32:11;;;;;;;9.77;8.77;;;14.00;1.00;;;;;;5053015;28;20167;-74
2022/09/25 08:34:36;;;;;;;15.53;8.80;;;14.00;1.00;;;;;;5047003;28;20414;-68
2022/09/25 08:37:03;;;;;;;8.90;8.00;;;14.10;1.00;;;;;;5052758;28;20183;-77
2022/09/25 08:39:28;;;;;;;8.83;7.93;;;14.20;1.00;;;;;;5042896;28;20261;-77
2022/09/25 08:41:55;;;;;;;8.90;7.00;;;14.20;1.00;;;;;;5035519;28;20399;-77
2022/09/25 08:44:43;;;;;;;9.80;8.80;;;14.20;1.00;;;;;;5033421;28;20203;-68
2022/09/25 08:50:13;;;;;;;9.03;8.10;;;14.30;1.00;;;;;;5034862;28;20433;-77
2022/09/25 08:52:43;;;;;;;8.70;7.90;;;14.20;1.00;;;;;;5035204;28;20409;-69
2022/09/25 08:58:28;;;;;;;11.53;7.90;;;14.30;1.00;;;;;;5051735;28;20460;-77
2022/09/25 09:00:59;;;;;;;9.53;7.40;;;14.30;1.00;;;;;;5055062;28;20975;-68
2022/09/25 09:03:30;;;;;;;7.73;6.87;;;14.20;1.00;;;;;;5054088;28;20449;-67
2022/09/25 09:06:05;;;;;;;11.10;7.90;;;14.20;1.00;;;;;;5054151;28;20781;-78
2022/09/25 09:08:35;;;;;;;9.93;7.97;;;14.30;1.00;;;;;;5046657;28;21130;-68
2022/09/25 09:11:11;;;;;;;8.50;7.60;;;14.30;1.00;;;;;;5034962;28;20891;-69
2022/09/25 09:13:52;;;;;;;10.10;7.37;;;14.30;1.00;;;;;;5034395;28;20851;-74
2022/09/25 09:16:22;;;;;;;8.87;7.90;;;14.30;1.00;;;;;;5034790;28;20414;-68
2022/09/25 09:18:48;;;;;;;9.20;7.87;;;14.40;1.00;;;;;;5041703;28;20516;-77
2022/09/25 09:21:34;;;;;;;7.90;6.73;;;14.40;1.00;;;;;;5054544;28;20417;-77
2022/09/25 09:24:16;;;;;;;10.70;7.90;;;14.40;1.00;;;;;;5045290;28;20459;-76
2022/09/25 09:27:17;;;;;;;11.67;8.27;;;14.40;99.90;;;;;;5034337;28;20430;-67
2022/09/25 09:30:01;;;;;;;9.00;7.90;;;14.30;99.90;;;;;;5046244;28;20479;-76
2022/09/25 09:33:00;;;;;;;7.97;7.20;;;14.40;99.90;;;;;;5054553;28;20405;-77
2022/09/25 09:35:58;;;;;;;8.60;7.20;;;14.40;99.90;;;;;;5033911;28;20442;-76
2022/09/25 09:38:27;;;;;;;8.20;7.40;;;14.40;99.90;;;;;;5034186;28;20441;-78
2022/09/25 09:41:07;;;;;;;15.40;8.40;;;14.40;99.90;;;;;;5034539;28;20390;-69
2022/09/25 09:43:37;;;;;;;10.10;6.43;;;14.40;99.90;;;;;;5033276;28;20454;-69
2022/09/25 09:46:17;;;;;;;11.20;8.37;;;14.50;99.90;;;;;;5054003;28;20421;-78
2022/09/25 09:49:07;;;;;;;11.60;7.60;;;14.50;99.90;;;;;;5051230;28;20429;-69
2022/09/25 09:51:59;;;;;;;9.50;8.07;;;14.50;99.90;;;;;;5034151;28;20485;-76
2022/09/25 09:54:51;;;;;;;11.93;7.30;;;14.50;99.90;;;;;;5040531;28;20418;-77
2022/09/25 09:57:25;;;;;;;8.00;7.30;;;14.50;99.90;;;;;;5054043;28;20440;-72
2022/09/25 10:00:11;;;;;;;7.60;6.90;;;14.50;99.90;;;;;;5051969;28;20469;-70
2022/09/25 10:02:43;;;;;;;9.13;8.23;;;14.50;99.90;;;;;;5053543;28;20520;-66
2022/09/25 10:05:33;;;;;;;13.77;8.77;;;14.50;99.90;;;;;;5039664;28;20478;-74
2022/09/25 10:07:59;;;;;;;8.07;7.27;;;14.50;99.90;;;;;;5034018;28;20449;-75
2022/09/25 10:10:34;;;;;;;11.37;8.10;;;14.50;99.90;;;;;;5048414;28;20414;-67
2022/09/25 10:13:05;;;;;;;8.50;7.17;;;14.50;99.90;;;;;;5049291;28;20960;-72
2022/09/25 10:15:39;;;;;;;12.30;8.43;;;14.60;99.90;;;;;;5033016;28;20407;-73
2022/09/25 10:18:06;;;;;;;9.60;8.20;;;14.60;99.90;;;;;;5037847;28;20912;-68
2022/09/25 10:21:00;;;;;;;8.47;7.57;;;14.60;99.90;;;;;;5053297;28;20456;-77
2022/09/25 10:23:38;;;;;;;8.80;8.00;;;14.60;99.90;;;;;;5046216;28;20508;-76
2022/09/25 10:26:28;;;;;;;10.27;8.27;;;14.60;99.90;;;;;;5033528;28;20480;-77
2022/09/25 10:29:02;;;;;;;9.23;7.83;;;14.60;99.90;;;;;;5043141;28;20417;-75
2022/09/25 10:31:35;;;;;;;12.63;9.60;;;14.60;99.90;;;;;;5053444;28;20409;-69
2022/09/25 10:34:12;;;;;;;10.40;7.33;;;14.60;99.90;;;;;;5042103;28;20426;-76
2022/09/25 10:36:44;;;;;;;7.43;6.73;;;14.60;99.90;;;;;;5032450;28;20438;-77
2022/09/25 10:39:34;;;;;;;7.43;6.73;;;14.60;99.90;;;;;;5042314;28;20425;-69
2022/09/25 10:42:00;;;;;;;9.90;6.60;;;14.60;99.90;;;;;;5053339;28;20782;-69
2022/09/25 10:44:35;;;;;;;7.73;6.93;;;14.70;99.90;;;;;;5039414;28;20830;-76
2022/09/25 10:50:15;;;;;;;8.27;7.40;;;14.70;99.90;;;;;;5044939;28;20467;-76
2022/09/25 10:52:48;;;;;;;10.30;6.47;;;14.60;99.90;;;;;;5031931;28;20437;-75
2022/09/25 10:55:35;;;;;;;9.07;7.43;;;14.60;99.90;;;;;;5031968;28;20517;-69
2022/09/25 10:58:10;;;;;;;8.87;7.60;;;14.50;99.90;;;;;;5031640;28;20791;-70
2022/09/25 11:00:52;;;;;;;9.23;8.23;;;14.50;99.90;;;;;;5032729;28;20460;-74
2022/09/25 11:03:20;;;;;;;9.37;7.37;;;14.50;99.90;;;;;;5032967;28;20508;-67
2022/09/25 11:05:54;;;;;;;9.17;7.43;;;14.60;99.90;;;;;;5039895;28;20850;-67
2022/09/25 11:08:23;;;;;;;9.07;7.90;;;14.60;99.90;;;;;;5052941;28;20390;-74
2022/09/25 11:10:57;;;;;;;8.30;7.40;;;14.70;99.90;;;;;;5045088;28;20422;-75
2022/09/25 11:13:27;;;;;;;9.67;7.80;;;14.70;99.90;;;;;;5032778;28;20438;-74
2022/09/25 11:15:59;;;;;;;9.93;8.63;;;14.80;99.90;;;;;;5037809;28;21026;-77
2022/09/25 11:18:39;;;;;;;12.17;9.03;;;14.90;99.90;;;;;;5052591;28;20397;-69
2022/09/25 11:21:16;;;;;;;12.07;9.07;;;14.90;99.90;;;;;;5044056;28;20418;-69
2022/09/25 11:24:14;;;;;;;9.43;8.43;;;15.00;99.90;;;;;;5031925;28;20449;-77
2022/09/25 11:26:48;;;;;;;10.07;9.07;;;15.00;99.90;;;;;;5044313;28;20499;-76
2022/09/25 11:29:25;;;;;;;9.20;8.10;;;15.10;99.90;;;;;;5051850;28;20405;-69
2022/09/25 11:32:13;;;;;;;11.93;9.53;;;15.10;99.90;;;;;;5038838;28;20425;-77
2022/09/25 11:34:59;;;;;;;9.87;8.83;;;15.00;99.90;;;;;;5031434;28;20807;-69
2022/09/25 11:37:54;;;;;;;10.90;8.53;;;15.00;99.90;;;;;;5050113;28;20421;-70
2022/09/25 11:41:13;;;;;;;11.00;8.30;;;15.00;99.90;;;;;;5052281;28;20489;-77
2022/09/25 11:43:57;;;;;;;9.50;8.00;;;15.00;99.90;;;;;;5031739;28;20568;-77
2022/09/25 11:47:01;;;;;;;13.20;9.60;;;14.90;99.90;;;;;;5040445;28;20789;-69
2022/09/25 11:49:37;;;;;;;13.43;9.57;;;14.80;99.90;;;;;;5051374;28;20952;-70
2022/09/25 11:52:18;;;;;;;10.10;9.20;;;14.90;99.90;;;;;;5039074;28;20425;-71
2022/09/25 11:55:08;;;;;;;10.33;8.50;;;15.00;99.90;;;;;;5030987;28;20410;-71
2022/09/25 11:58:04;;;;;;;12.00;8.80;;;14.90;99.90;;;;;;5048082;28;20508;-75
2022/09/25 12:00:48;;;;;;;13.37;9.87;;;14.90;99.90;;;;;;5051402;28;20456;-70
2022/09/25 12:03:14;;;;;;;9.67;8.77;;;15.00;99.90;;;;;;5032515;28;20511;-70
2022/09/25 12:06:10;;;;;;;10.00;9.00;;;15.00;99.90;;;;;;5031851;28;20426;-75
2022/09/25 12:08:51;;;;;;;10.90;9.10;;;15.00;99.90;;;;;;5036241;28;20160;-70
2022/09/25 12:11:44;;;;;;;10.80;9.70;;;15.10;99.90;;;;;;5035654;28;20406;-76
2022/09/25 12:14:25;;;;;;;10.17;8.70;;;15.00;99.90;;;;;;5035394;28;20445;-70
2022/09/25 12:17:27;;;;;;;10.30;8.70;;;15.00;99.90;;;;;;5035900;28;20429;-76
2022/09/25 12:20:13;;;;;;;12.10;9.90;;;15.00;99.90;;;;;;5036125;28;20909;-70
2022/09/25 12:23:04;;;;;;;10.10;9.10;;;15.00;99.90;;;;;;5034568;28;20406;-76
2022/09/25 12:25:46;;;;;;;9.60;8.70;;;15.10;99.90;;;;;;5035454;28;20426;-76
2022/09/25 12:28:46;;;;;;;10.67;7.90;;;15.10;99.90;;;;;;5035790;28;20930;-76
2022/09/25 12:31:24;;;;;;;11.47;9.20;;;15.20;99.90;;;;;;5034096;28;20411;-76
2022/09/25 12:34:08;;;;;;;10.60;8.97;;;15.30;99.90;;;;;;5035156;28;20395;-75
2022/09/25 12:36:56;;;;;;;13.80;8.10;;;15.30;99.90;;;;;;5035638;28;20440;-76
2022/09/25 12:39:26;;;;;;;9.00;8.17;;;15.30;99.90;;;;;;5035649;28;20410;-76
2022/09/25 12:42:06;;;;;;;9.13;8.23;;;15.30;99.90;;;;;;5034458;28;20418;-75
2022/09/25 12:44:45;;;;;;;11.83;8.47;;;15.20;99.90;;;;;;5033551;28;20519;-74
2022/09/25 12:47:25;;;;;;;11.63;8.10;;;15.30;99.90;;;;;;5035583;28;20747;-70
2022/09/25 12:50:09;;;;;;;9.23;8.27;;;15.30;99.90;;;;;;5034854;28;20489;-71
2022/09/25 12:52:58;;;;;;;10.17;7.00;;;15.20;99.90;;;;;;5035377;28;20406;-67
2022/09/25 12:56:16;;;;;;;13.20;10.90;;;15.20;99.90;;;;;;5034593;28;20406;-74
2022/09/25 12:58:44;;;;;;;15.67;10.47;;;15.20;99.90;;;;;;5034904;28;21010;-74
2022/09/25 13:01:25;;;;;;;12.60;9.87;;;15.20;99.90;;;;;;5035273;28;20402;-71
2022/09/25 13:04:17;;;;;;;15.20;10.23;;;15.30;99.90;;;;;;5034341;28;20449;-72
2022/09/25 13:06:52;;;;;;;8.27;6.50;;;15.50;99.90;;;;;;5034895;28;20463;-75
2022/09/25 13:09:24;;;;;;;10.70;9.60;;;15.50;99.90;;;;;;5034671;28;20869;-73
2022/09/25 13:12:07;;;;;;;7.60;6.90;;;15.50;99.90;;;;;;5034104;28;20577;-73
2022/09/25 13:14:45;;;;;;;9.43;8.40;;;15.40;99.90;;;;;;5034382;28;20406;-73
2022/09/25 13:17:14;;;;;;;6.73;6.07;;;15.30;99.90;;;;;;5033757;28;20499;-72
2022/09/25 13:19:40;;;;;;;12.60;5.63;;;15.40;99.90;;;;;;5034871;28;20415;-69
2022/09/25 13:22:09;;;;;;;4.80;4.33;;;15.40;99.90;;;;;;5033849;28;20919;-71
2022/09/25 13:25:11;;;;;;;3.93;2.73;;;15.40;99.90;;;;;;5033463;28;20450;-71
2022/09/25 13:27:44;;;;;;;4.23;3.70;;;15.30;99.90;;;;;;5034406;28;20472;-70
2022/09/25 13:30:55;;;;;;;5.33;3.50;;;15.20;99.90;;;;;;5034698;28;20985;-72